Time;durP1;ratioP1;P1;durP2;ratioP2;P2;SDS_P1;SDS_P2;PMS_P1;PMS_P2;Temp;Humidity;BMP_temperature;BMP_pressure;BME280_temperature;BME280_humidity;BME280_pressure;Samples;Min_cycle;Max_cycle;Signal;HPM_P1;HPM_P2
2022/04/27 00:02:06;;;;;;;12.88;8.95;;;;;;;3.18;100.00;99989.09;5029448;28;20533;-52
2022/04/27 00:04:51;;;;;;;18.23;10.70;;;;;;;3.14;100.00;99979.56;5028726;28;20053;-52
2022/04/27 00:07:35;;;;;;;15.60;10.35;;;;;;;3.09;100.00;99973.53;5023739;28;20069;-52
2022/04/27 00:10:20;;;;;;;14.27;9.38;;;;;;;3.18;100.00;99983.06;5023976;28;20049;-52
2022/04/27 00:13:05;;;;;;;16.05;8.85;;;;;;;3.17;100.00;99986.50;5024336;28;20058;-52
2022/04/27 00:15:49;;;;;;;13.63;9.25;;;;;;;3.14;100.00;99983.91;5023207;28;20046;-52
2022/04/27 00:18:33;;;;;;;16.95;8.60;;;;;;;3.09;100.00;99983.88;5026886;28;20037;-51
2022/04/27 00:21:18;;;;;;;13.05;8.55;;;;;;;3.08;100.00;99987.28;5032252;28;20041;-52
2022/04/27 00:24:03;;;;;;;14.70;9.38;;;;;;;3.08;100.00;99984.69;5032991;28;20064;-52
2022/04/27 00:26:48;;;;;;;14.25;9.18;;;;;;;3.06;100.00;99994.19;5032101;28;20091;-52
2022/04/27 00:29:33;;;;;;;16.73;10.82;;;;;;;3.01;100.00;99988.97;5024802;28;20107;-52
2022/04/27 00:32:17;;;;;;;12.98;9.48;;;;;;;2.99;100.00;99993.28;5031162;28;20076;-52
2022/04/27 00:35:03;;;;;;;15.15;10.23;;;;;;;2.96;100.00;99995.84;5022981;28;20045;-52
2022/04/27 00:37:47;;;;;;;15.05;9.93;;;;;;;2.92;100.00;99994.06;5023455;28;20049;-52
2022/04/27 00:40:32;;;;;;;12.55;8.65;;;;;;;2.90;100.00;99997.50;5023693;28;20469;-52
2022/04/27 00:43:34;;;;;;;18.48;11.05;;;;;;;2.83;100.00;99993.09;5023412;28;20053;-52
2022/04/27 00:46:18;;;;;;;21.67;12.60;;;;;;;2.77;100.00;99997.38;5041905;28;20056;-52
2022/04/27 00:49:03;;;;;;;18.85;12.15;;;;;;;2.78;100.00;100006.00;5032585;28;20172;-52
2022/04/27 00:51:49;;;;;;;21.05;11.68;;;;;;;2.81;100.00;100001.72;5035904;28;20053;-53
2022/04/27 00:54:34;;;;;;;23.75;13.20;;;;;;;2.80;100.00;100006.91;5035622;28;20045;-52
2022/04/27 00:57:19;;;;;;;22.05;13.57;;;;;;;2.77;100.00;100007.72;5022025;28;20041;-52
2022/04/27 01:00:05;;;;;;;17.05;12.35;;;;;;;2.73;100.00;99992.16;5023107;28;20050;-52
2022/04/27 01:02:49;;;;;;;18.35;12.70;;;;;;;2.77;100.00;100005.16;5038533;28;20377;-52
2022/04/27 01:05:34;;;;;;;20.45;13.05;;;;;;;2.76;100.00;100006.00;5024147;28;20046;-52
2022/04/27 01:08:23;;;;;;;18.88;12.77;;;;;;;2.65;100.00;100007.59;5038031;28;20079;-52
2022/04/27 01:11:08;;;;;;;19.45;11.88;;;;;;;2.72;100.00;100011.13;5021535;28;20049;-53
2022/04/27 01:14:00;;;;;;;18.05;12.07;;;;;;;2.71;100.00;100010.25;5022555;28;20763;-53
2022/04/27 01:16:52;;;;;;;17.70;12.30;;;;;;;2.71;100.00;100007.66;5035624;28;20056;-53
2022/04/27 01:19:37;;;;;;;21.42;13.55;;;;;;;2.69;100.00;100011.09;5038372;28;20374;-52
2022/04/27 01:22:22;;;;;;;22.30;13.48;;;;;;;2.72;100.00;100016.28;5032214;28;20069;-52
2022/04/27 01:25:07;;;;;;;21.70;13.43;;;;;;;2.68;100.00;100015.41;5023881;28;20041;-52
2022/04/27 01:27:52;;;;;;;20.98;13.27;;;;;;;2.65;100.00;100011.91;5031231;28;20057;-53
2022/04/27 01:30:37;;;;;;;19.88;12.63;;;;;;;2.65;100.00;100022.25;5030639;28;20523;-52
2022/04/27 01:33:22;;;;;;;17.30;11.50;;;;;;;2.62;100.00;100020.50;5021334;28;20128;-53
2022/04/27 01:36:09;;;;;;;20.70;12.27;;;;;;;2.61;100.00;100015.34;5023963;28;20058;-53
2022/04/27 01:38:55;;;;;;;20.45;12.40;;;;;;;2.58;100.00;100017.03;5042022;28;20092;-52
2022/04/27 01:41:40;;;;;;;21.50;13.23;;;;;;;2.55;100.00;100018.72;5037389;28;20451;-52
2022/04/27 01:44:25;;;;;;;18.52;12.70;;;;;;;2.53;100.00;100016.09;5043408;28;20092;-52
2022/04/27 01:47:10;;;;;;;20.90;13.13;;;;;;;2.54;100.00;100020.44;5040020;28;20045;-51
2022/04/27 01:49:54;;;;;;;19.33;13.32;;;;;;;2.53;100.00;100026.44;5027769;28;20140;-54
2022/04/27 01:55:42;;;;;;;27.70;14.82;;;;;;;2.50;100.00;100023.84;5048056;28;20048;-52
2022/04/27 01:58:27;;;;;;;21.92;14.95;;;;;;;2.44;100.00;100028.06;5043092;28;20056;-52
2022/04/27 02:01:14;;;;;;;27.08;16.38;;;;;;;2.37;100.00;100016.78;5048488;28;20051;-51
2022/04/27 02:03:59;;;;;;;25.52;15.43;;;;;;;2.41;100.00;100022.88;5026527;28;20492;-53
2022/04/27 02:06:45;;;;;;;26.13;16.13;;;;;;;2.40;100.00;100018.53;5038551;28;20045;-52
2022/04/27 02:09:33;;;;;;;25.17;14.27;;;;;;;2.37;100.00;100018.50;5040456;28;20053;-52
2022/04/27 02:12:18;;;;;;;23.35;14.88;;;;;;;2.38;100.00;100021.13;5047424;28;20057;-52
2022/04/27 02:15:10;;;;;;;29.20;16.13;;;;;;;2.36;100.00;100019.34;5026231;28;20037;-52
2022/04/27 02:17:58;;;;;;;24.00;14.85;;;;;;;2.34;100.00;100014.19;5024631;28;20520;-53
2022/04/27 02:20:42;;;;;;;28.65;17.00;;;;;;;2.23;100.00;100021.78;5025406;28;20053;-52
2022/04/27 02:23:27;;;;;;;25.75;16.10;;;;;;;2.29;100.00;100026.19;5025916;28;20566;-52
2022/04/27 02:26:12;;;;;;;26.65;15.18;;;;;;;2.35;100.00;100031.41;5027046;28;20046;-53
2022/04/27 02:28:57;;;;;;;30.88;16.73;;;;;;;2.34;100.00;100025.38;5034376;28;20036;-52
2022/04/27 02:31:42;;;;;;;26.83;16.30;;;;;;;2.27;100.00;100013.22;5038214;28;20061;-52
2022/04/27 02:34:27;;;;;;;22.65;15.25;;;;;;;2.36;100.00;100016.78;5038317;28;20050;-52
2022/04/27 02:37:12;;;;;;;30.02;16.58;;;;;;;2.22;100.00;100022.66;5038243;28;20048;-52
2022/04/27 02:40:00;;;;;;;30.20;17.30;;;;;;;2.27;100.00;100015.81;5038434;28;20049;-53
2022/04/27 02:42:44;;;;;;;29.83;16.73;;;;;;;2.33;100.00;100023.63;5031098;28;20049;-52
2022/04/27 02:45:31;;;;;;;23.15;14.48;;;;;;;2.33;100.00;100028.81;5027320;28;20551;-52
2022/04/27 02:48:16;;;;;;;21.85;14.75;;;;;;;2.37;100.00;100019.38;5040420;28;20068;-51
2022/04/27 02:54:04;;;;;;;27.45;17.63;;;;;;;2.31;100.00;100022.75;5040839;28;20064;-53
2022/04/27 02:56:49;;;;;;;28.40;15.90;;;;;;;2.38;100.00;100021.13;5046517;28;20041;-52
2022/04/27 02:59:34;;;;;;;24.23;15.85;;;;;;;2.41;100.00;100020.28;5025506;28;20045;-51
2022/04/27 03:02:19;;;;;;;28.67;15.98;;;;;;;2.34;100.00;100016.78;5045709;28;21615;-52
2022/04/27 03:05:04;;;;;;;24.98;14.30;;;;;;;2.41;100.00;100035.81;5032948;28;20045;-52
2022/04/27 03:07:48;;;;;;;25.83;15.02;;;;;;;2.40;100.00;100026.28;5037516;28;20053;-52
2022/04/27 03:10:33;;;;;;;22.83;13.98;;;;;;;2.45;100.00;100034.97;5024439;28;20553;-52
2022/04/27 03:13:17;;;;;;;20.85;14.43;;;;;;;2.45;100.00;100034.97;5035115;28;20123;-52
2022/04/27 03:16:04;;;;;;;25.48;15.32;;;;;;;2.41;100.00;100034.09;5020054;28;20557;-51
2022/04/27 03:18:49;;;;;;;20.52;12.80;;;;;;;2.46;100.00;100036.72;5026215;28;20123;-53
2022/04/27 03:21:34;;;;;;;21.58;13.68;;;;;;;2.47;100.00;100041.00;5028872;28;20095;-52
2022/04/27 03:24:18;;;;;;;24.55;13.45;;;;;;;2.40;100.00;100047.84;5030265;28;20057;-52
2022/04/27 03:27:03;;;;;;;23.30;13.45;;;;;;;2.44;100.00;100046.16;5039494;28;20053;-52
2022/04/27 03:29:47;;;;;;;23.05;13.43;;;;;;;2.49;100.00;100049.66;5031098;28;20045;-52
2022/04/27 03:32:32;;;;;;;22.75;13.48;;;;;;;2.51;100.00;100048.84;5025283;28;20056;-53
2022/04/27 03:35:20;;;;;;;20.48;12.80;;;;;;;2.51;100.00;100058.31;5038985;28;20057;-52
2022/04/27 03:38:07;;;;;;;24.33;12.82;;;;;;;2.55;100.00;100067.84;5041387;28;20049;-53
2022/04/27 03:40:51;;;;;;;23.63;14.25;;;;;;;2.57;100.00;100061.00;5025462;28;20068;-53
2022/04/27 03:43:36;;;;;;;29.13;18.00;;;;;;;2.58;100.00;100068.75;5039436;28;20045;-52
2022/04/27 03:46:21;;;;;;;23.38;15.48;;;;;;;2.66;100.00;100068.81;5024514;28;20950;-51
2022/04/27 03:49:06;;;;;;;23.85;13.52;;;;;;;2.74;100.00;100063.75;5023162;28;20059;-52
2022/04/27 03:51:51;;;;;;;24.48;14.40;;;;;;;2.67;100.00;100072.31;5038312;28;20427;-52
2022/04/27 03:54:38;;;;;;;23.83;14.18;;;;;;;2.76;100.00;100073.28;5039359;28;20056;-52
2022/04/27 03:57:22;;;;;;;21.88;14.25;;;;;;;2.83;100.00;100070.72;5032530;28;20077;-52
2022/04/27 04:00:11;;;;;;;30.23;18.42;;;;;;;2.66;100.00;100084.34;5039131;28;20103;-53
2022/04/27 04:03:04;;;;;;;25.90;17.52;;;;;;;2.87;100.00;100073.38;5046619;28;20069;-53
2022/04/27 04:05:50;;;;;;;34.20;16.60;;;;;;;3.03;100.00;100079.56;5038833;28;20045;-53
2022/04/27 04:08:36;;;;;;;31.98;17.45;;;;;;;3.02;100.00;100083.00;5039747;28;20622;-53
2022/04/27 04:11:21;;;;;;;32.30;18.83;;;;;;;2.96;100.00;100086.41;5047730;28;20045;-53
2022/04/27 04:14:20;;;;;;;27.75;17.35;;;;;;;3.06;100.00;100089.97;5040294;28;20067;-53
2022/04/27 04:17:12;;;;;;;24.17;14.60;;;;;;;3.24;100.00;100100.47;5034648;28;20107;-52
2022/04/27 04:20:08;;;;;;;24.83;15.90;;;;;;;3.38;100.00;100102.31;5038304;28;20045;-53
2022/04/27 04:23:04;;;;;;;30.58;16.95;;;;;;;3.45;100.00;100106.72;5024407;28;20048;-52
2022/04/27 04:28:59;;;;;;;28.05;15.60;;;;;;;3.69;100.00;100109.47;5037693;28;21041;-52
2022/04/27 04:31:43;;;;;;;32.53;17.55;;;;;;;3.88;100.00;100114.81;5036489;28;20042;-52
2022/04/27 04:34:35;;;;;;;30.92;16.67;;;;;;;4.04;100.00;100111.47;5023814;28;20049;-52
2022/04/27 04:37:19;;;;;;;33.15;18.58;;;;;;;4.18;100.00;100109.81;5037757;28;20081;-52
2022/04/27 04:40:05;;;;;;;32.08;19.77;;;;;;;4.26;100.00;100114.16;5037495;28;20064;-52
2022/04/27 04:42:50;;;;;;;29.70;19.15;;;;;;;4.50;100.00;100109.09;5037614;28;20061;-51
2022/04/27 04:45:35;;;;;;;33.10;20.58;;;;;;;5.01;100.00;100110.16;5038294;28;20045;-53
2022/04/27 04:48:42;;;;;;;37.20;22.30;;;;;;;5.28;100.00;100111.91;5024378;28;20057;-53
2022/04/27 04:51:46;;;;;;;33.03;21.17;;;;;;;5.32;100.00;100124.03;5025075;28;20061;-53
2022/04/27 04:55:04;;;;;;;35.17;21.88;;;;;;;5.52;100.00;100115.38;4987090;28;20432;-52
2022/04/27 04:58:09;;;;;;;38.25;23.15;;;;;;;5.69;100.00;100117.97;5024327;28;20045;-52
2022/04/27 05:01:14;;;;;;;41.70;24.65;;;;;;;5.86;100.00;100117.13;5023261;28;20057;-52
2022/04/27 05:04:15;;;;;;;38.10;23.17;;;;;;;6.60;100.00;100123.91;5024149;28;20049;-52
2022/04/27 05:07:26;;;;;;;47.42;28.40;;;;;;;7.69;100.00;100131.94;5033992;28;20049;-52
2022/04/27 05:10:29;;;;;;;50.35;33.40;;;;;;;7.72;100.00;100130.16;5025827;28;20053;-52
2022/04/27 05:13:34;;;;;;;52.42;32.22;;;;;;;7.70;100.00;100133.66;5043687;28;20057;-52
2022/04/27 05:16:38;;;;;;;64.68;38.00;;;;;;;7.68;100.00;100132.81;5030096;28;20440;-53
2022/04/27 05:19:45;;;;;;;183.70;105.68;;;;;;;7.64;100.00;100144.16;5013700;28;20061;-52
2022/04/27 05:23:01;;;;;;;233.63;129.63;;;;;;;7.62;100.00;100141.56;5050128;28;20064;-53
2022/04/27 05:26:15;;;;;;;96.43;56.60;;;;;;;7.54;100.00;100145.06;4978608;28;20565;-53
2022/04/27 05:32:25;;;;;;;148.40;79.57;;;;;;;8.17;100.00;100156.72;5029627;28;20042;-52
2022/04/27 05:35:28;;;;;;;253.35;127.00;;;;;;;9.36;100.00;100158.81;5034806;28;20537;-52
2022/04/27 05:38:25;;;;;;;85.35;51.63;;;;;;;9.62;100.00;100170.59;5044429;28;20048;-53
2022/04/27 05:41:36;;;;;;;81.13;51.10;;;;;;;9.89;100.00;100169.31;5027705;28;20056;-52
2022/04/27 05:44:41;;;;;;;90.32;56.97;;;;;;;10.07;100.00;100164.66;5030675;28;20069;-53
2022/04/27 05:47:39;;;;;;;75.57;48.30;;;;;;;10.28;100.00;100163.41;5045479;28;20065;-53
2022/04/27 05:50:42;;;;;;;66.65;44.92;;;;;;;10.47;100.00;100171.81;5027172;28;20063;-53
2022/04/27 05:53:35;;;;;;;;;;;;;;;10.67;100.00;100179.28;5025293;28;20056;-54
2022/04/27 05:56:28;;;;;;;57.08;38.83;;;;;;;11.23;100.00;100166.75;5028957;28;19925;-54
2022/04/27 05:59:31;;;;;;;;;;;;;;;11.40;100.00;100182.09;5026028;28;20045;-54
2022/04/27 06:02:45;;;;;;;52.75;32.65;;;;;;;11.71;100.00;100181.41;5022301;28;20016;-53
2022/04/27 06:05:32;;;;;;;74.03;40.28;;;;;;;12.13;100.00;100182.16;5023644;28;20057;-53
2022/04/27 06:08:17;;;;;;;91.88;50.17;;;;;;;12.37;100.00;100185.88;5037931;28;20180;-54
2022/04/27 06:11:03;;;;;;;82.63;48.83;;;;;;;12.37;100.00;100200.78;5037410;28;20090;-54
2022/04/27 06:13:59;;;;;;;87.07;51.63;;;;;;;12.48;100.00;100196.13;5023381;28;20491;-53
2022/04/27 06:16:52;;;;;;;83.65;47.53;;;;;;;12.75;100.00;100202.38;5038992;28;20049;-53
2022/04/27 06:19:37;;;;;;;70.43;42.00;;;;;;;13.00;100.00;100197.31;5026099;28;20057;-54
2022/04/27 06:22:26;;;;;;;71.78;42.30;;;;;;;13.24;100.00;100205.38;5023312;28;20141;-54
2022/04/27 06:25:11;;;;;;;69.05;41.40;;;;;;;13.30;100.00;100206.09;5023971;28;20063;-54
2022/04/27 06:28:21;;;;;;;61.63;35.53;;;;;;;13.46;100.00;100206.50;5028087;28;20194;-54
2022/04/27 06:31:08;;;;;;;51.03;32.33;;;;;;;13.63;100.00;100205.97;5026759;28;20056;-53
2022/04/27 06:33:52;;;;;;;41.00;26.83;;;;;;;13.47;100.00;100215.25;5024947;28;20063;-53
2022/04/27 06:36:38;;;;;;;28.52;19.17;;;;;;;13.17;100.00;100219.63;5039381;28;20505;-55
2022/04/27 06:39:24;;;;;;;26.75;18.38;;;;;;;12.82;100.00;100235.47;5039641;28;20079;-54
2022/04/27 06:42:10;;;;;;;32.47;20.15;;;;;;;13.09;100.00;100228.56;5037539;28;20045;-54
2022/04/27 06:44:54;;;;;;;31.38;21.35;;;;;;;13.00;100.00;100228.88;5028554;28;20084;-54
2022/04/27 06:48:05;;;;;;;31.73;19.67;;;;;;;13.19;100.00;100234.44;5024714;28;20095;-55
2022/04/27 06:51:09;;;;;;;31.90;21.50;;;;;;;13.35;100.00;100234.88;5024495;28;20045;-54
2022/04/27 06:54:22;;;;;;;;;;;;;;;13.56;100.00;100239.50;5004632;28;20479;-53
2022/04/27 06:57:25;;;;;;;25.27;19.10;;;;;;;14.17;100.00;100244.63;5033570;28;20384;-53
2022/04/27 07:00:18;;;;;;;39.88;25.05;;;;;;;13.90;100.00;100243.72;5030703;28;20048;-53
2022/04/27 07:03:05;;;;;;;38.38;24.98;;;;;;;13.14;100.00;100238.13;5013837;28;20128;-54
2022/04/27 07:05:49;;;;;;;37.70;24.77;;;;;;;13.94;100.00;100248.00;5023583;28;20103;-53
2022/04/27 07:08:34;;;;;;;33.58;24.48;;;;;;;14.31;100.00;100246.78;5037904;28;20190;-54
2022/04/27 07:11:19;;;;;;;38.70;25.98;;;;;;;13.64;100.00;100248.94;5033344;28;20534;-52
2022/04/27 07:14:03;;;;;;;39.72;26.63;;;;;;;13.88;100.00;100252.59;5035539;28;20084;-53
2022/04/27 07:16:48;;;;;;;36.05;24.92;;;;;;;14.12;100.00;100258.84;5031805;28;20069;-53
2022/04/27 07:19:32;;;;;;;35.85;22.08;;;;;;;14.78;100.00;100259.28;5035603;28;20049;-53
2022/04/27 07:22:17;;;;;;;36.95;24.60;;;;;;;14.60;100.00;100252.88;5027801;28;20064;-53
2022/04/27 07:25:02;;;;;;;36.63;26.08;;;;;;;14.88;100.00;100264.19;5035341;28;20052;-53
2022/04/27 07:27:47;;;;;;;34.97;24.25;;;;;;;15.16;100.00;100271.09;5044622;28;20439;-52
2022/04/27 07:30:32;;;;;;;35.85;24.77;;;;;;;15.35;100.00;100271.28;5032400;28;20065;-53
2022/04/27 07:33:16;;;;;;;37.15;25.13;;;;;;;15.52;100.00;100274.13;5030005;28;20057;-52
2022/04/27 07:36:01;;;;;;;31.63;24.40;;;;;;;15.45;100.00;100275.28;5033624;28;20510;-53
2022/04/27 07:38:45;;;;;;;36.88;26.17;;;;;;;15.57;100.00;100266.06;5027642;28;20123;-54
2022/04/27 07:41:30;;;;;;;33.25;24.00;;;;;;;15.70;100.00;100279.69;5035061;28;20080;-52
2022/04/27 07:44:14;;;;;;;34.22;24.13;;;;;;;16.29;100.00;100273.78;5034639;28;20102;-52
2022/04/27 07:46:59;;;;;;;37.50;25.25;;;;;;;16.55;97.77;100276.19;5034972;28;20103;-53
2022/04/27 07:49:46;;;;;;;30.85;22.88;;;;;;;17.45;89.59;100271.38;5035102;28;20053;-53
2022/04/27 07:52:30;;;;;;;35.45;24.63;;;;;;;17.65;85.49;100277.53;5033114;28;20746;-54
2022/04/27 07:55:15;;;;;;;31.00;21.23;;;;;;;18.14;80.24;100278.72;5028457;28;20065;-52
2022/04/27 07:57:59;;;;;;;34.15;21.98;;;;;;;17.77;78.74;100276.13;5031385;28;20508;-53
2022/04/27 08:00:44;;;;;;;24.55;17.92;;;;;;;18.53;78.31;100274.16;5030319;28;20088;-53
2022/04/27 08:03:28;;;;;;;22.25;17.67;;;;;;;18.29;72.41;100284.19;5029467;28;20064;-53
2022/04/27 08:06:13;;;;;;;23.55;18.38;;;;;;;18.75;73.97;100285.44;5026793;28;20119;-54
2022/04/27 08:08:57;;;;;;;24.70;17.88;;;;;;;18.78;70.42;100287.06;5028142;28;20038;-53
2022/04/27 08:11:42;;;;;;;25.33;17.63;;;;;;;18.23;66.88;100282.69;5028625;28;20060;-53
2022/04/27 08:14:26;;;;;;;26.05;18.88;;;;;;;18.44;68.81;100286.09;5030010;28;20100;-54
2022/04/27 08:17:11;;;;;;;19.30;16.08;;;;;;;19.43;64.72;100284.50;5026804;28;20056;-53
2022/04/27 08:21:13;;;;;;;22.98;17.35;;;;;;;19.59;67.76;100280.06;5028455;28;20103;-53
2022/04/27 08:23:00;;;;;;;25.10;18.63;;;;;;;19.61;66.04;100295.00;5030348;28;20371;-53
2022/04/27 08:25:45;;;;;;;19.98;16.05;;;;;;;19.44;63.56;100289.75;5031819;28;20076;-53
2022/04/27 08:28:29;;;;;;;21.35;16.98;;;;;;;19.63;62.82;100300.25;5028387;28;20196;-52
2022/04/27 08:31:16;;;;;;;18.98;14.60;;;;;;;19.50;61.70;100289.44;5027223;28;20408;-53
2022/04/27 08:34:00;;;;;;;16.63;14.48;;;;;;;19.62;60.67;100288.72;5026763;28;20481;-53
2022/04/27 08:36:45;;;;;;;14.68;12.23;;;;;;;19.64;58.87;100285.19;5030487;28;20137;-52
2022/04/27 08:39:29;;;;;;;17.05;13.32;;;;;;;19.75;59.12;100291.59;5024942;28;20511;-53
2022/04/27 08:42:14;;;;;;;18.08;14.75;;;;;;;19.53;58.20;100294.56;5026893;28;20080;-53
2022/04/27 08:44:59;;;;;;;15.57;12.93;;;;;;;19.42;57.46;100291.63;5031971;28;20064;-54
2022/04/27 08:47:46;;;;;;;16.63;11.95;;;;;;;19.23;60.40;100293.56;5023893;28;20084;-53
2022/04/27 08:50:30;;;;;;;12.35;8.35;;;;;;;19.72;56.46;100297.09;5023759;28;20056;-54
2022/04/27 08:53:15;;;;;;;13.27;8.30;;;;;;;19.51;51.09;100292.94;5031154;28;20087;-53
2022/04/27 08:56:00;;;;;;;10.48;8.52;;;;;;;18.98;53.83;100289.56;5031950;28;20132;-53
2022/04/27 08:58:45;;;;;;;14.38;11.05;;;;;;;19.01;55.01;100294.72;5032184;28;20110;-53
2022/04/27 09:01:29;;;;;;;13.52;9.60;;;;;;;19.11;54.03;100298.59;5025912;28;20383;-53
2022/04/27 09:04:15;;;;;;;12.80;10.82;;;;;;;18.20;55.35;100288.19;5023697;28;20068;-53
2022/04/27 09:07:17;;;;;;;16.92;11.50;;;;;;;19.03;56.25;100292.81;5029846;28;20103;-53
2022/04/27 09:10:02;;;;;;;14.98;10.95;;;;;;;19.23;54.47;100294.41;5032722;28;20087;-54
2022/04/27 09:12:51;;;;;;;9.30;6.80;;;;;;;18.99;50.09;100301.88;5032988;28;20081;-53
2022/04/27 09:15:36;;;;;;;7.45;5.22;;;;;;;19.23;45.82;100309.47;5032846;28;20064;-53
2022/04/27 09:21:23;;;;;;;8.93;7.53;;;;;;;18.30;47.70;100304.50;5032192;28;20392;-53
2022/04/27 09:24:07;;;;;;;10.40;8.10;;;;;;;18.66;48.58;100300.00;5029920;28;20051;-53
2022/04/27 09:27:14;;;;;;;13.52;9.77;;;;;;;19.00;47.91;100295.63;5031762;28;20393;-52
2022/04/27 09:30:03;;;;;;;10.82;8.02;;;;;;;18.97;47.68;100297.59;5031044;28;20096;-53
2022/04/27 09:32:51;;;;;;;8.38;6.78;;;;;;;18.29;45.84;100293.00;5029639;28;21119;-53
2022/04/27 09:35:37;;;;;;;11.55;8.77;;;;;;;18.41;48.59;100297.69;5030974;28;20042;-53
2022/04/27 09:38:22;;;;;;;10.98;7.93;;;;;;;19.14;49.03;100294.88;5031629;28;20077;-52
2022/04/27 09:41:06;;;;;;;11.15;7.40;;;;;;;19.53;47.58;100293.69;5032778;28;20049;-52
2022/04/27 09:43:50;;;;;;;11.18;7.18;;;;;;;19.43;47.26;100282.72;5030788;28;20061;-53
2022/04/27 09:46:40;;;;;;;8.65;7.22;;;;;;;19.95;44.65;100285.19;5033054;28;20085;-52
2022/04/27 09:49:26;;;;;;;8.27;6.18;;;;;;;20.30;44.24;100295.59;5031303;28;20341;-52
2022/04/27 09:52:13;;;;;;;7.07;5.82;;;;;;;20.09;41.51;100284.41;5032508;28;20067;-53
2022/04/27 09:54:59;;;;;;;7.63;5.18;;;;;;;19.54;42.40;100285.66;5032102;28;20141;-52
2022/04/27 09:57:44;;;;;;;6.82;5.00;;;;;;;20.14;43.59;100284.13;5032498;28;20049;-52
2022/04/27 10:00:30;;;;;;;10.30;6.35;;;;;;;20.75;42.55;100284.09;5035809;28;20179;-53
2022/04/27 10:03:21;;;;;;;7.72;6.65;;;;;;;20.61;44.23;100283.22;5034482;28;20057;-53
2022/04/27 10:06:06;;;;;;;9.68;7.43;;;;;;;19.53;41.73;100273.31;5025879;28;20557;-54
2022/04/27 10:08:51;;;;;;;8.20;6.95;;;;;;;19.81;43.80;100285.09;5027819;28;20232;-54
2022/04/27 10:11:36;;;;;;;8.80;7.15;;;;;;;19.59;44.78;100285.41;5027435;28;20076;-52
2022/04/27 10:14:22;;;;;;;8.52;7.57;;;;;;;19.53;45.82;100291.03;5027646;28;20111;-52
2022/04/27 10:17:07;;;;;;;11.48;7.75;;;;;;;19.42;46.10;100291.63;5026803;28;20053;-52
2022/04/27 10:19:51;;;;;;;8.88;7.05;;;;;;;19.69;47.06;100288.44;5031881;28;20053;-51
2022/04/27 10:22:36;;;;;;;12.52;7.72;;;;;;;19.93;45.25;100292.41;5027938;28;20143;-52
2022/04/27 10:25:20;;;;;;;9.85;8.18;;;;;;;19.68;44.63;100294.69;5026339;28;20068;-53
2022/04/27 10:28:18;;;;;;;11.95;8.10;;;;;;;19.42;45.83;100286.31;5040705;28;20104;-53
2022/04/27 10:31:04;;;;;;;10.00;7.28;;;;;;;19.34;47.72;100296.50;5027678;28;20072;-51
2022/04/27 10:33:50;;;;;;;9.60;6.47;;;;;;;19.07;45.77;100297.00;5027925;28;20453;-53
2022/04/27 10:36:34;;;;;;;7.75;6.50;;;;;;;18.37;46.19;100300.59;5027380;28;20052;-52
2022/04/27 10:39:22;;;;;;;9.35;8.27;;;;;;;18.23;46.35;100303.91;5027033;28;20045;-53
2022/04/27 10:42:06;;;;;;;7.07;6.15;;;;;;;18.49;45.66;100301.75;5026942;28;20079;-52
2022/04/27 10:44:50;;;;;;;7.45;6.47;;;;;;;18.67;46.09;100301.69;5026434;28;20119;-52
2022/04/27 10:47:36;;;;;;;10.63;7.15;;;;;;;18.12;44.85;100295.63;5027603;28;20096;-53
2022/04/27 10:50:28;;;;;;;11.27;9.00;;;;;;;18.03;47.11;100301.38;5027347;28;20068;-52
2022/04/27 10:53:18;;;;;;;13.80;9.60;;;;;;;18.17;46.85;100301.56;5027408;28;20052;-52
2022/04/27 10:56:03;;;;;;;10.30;7.65;;;;;;;18.13;44.92;100298.19;5027365;28;20449;-53
2022/04/27 10:58:47;;;;;;;10.00;6.38;;;;;;;18.30;44.34;100300.03;5026733;28;20091;-52
2022/04/27 11:01:34;;;;;;;8.63;5.57;;;;;;;18.08;41.53;100296.72;5026368;28;20053;-53
2022/04/27 11:04:18;;;;;;;8.57;4.93;;;;;;;17.78;41.66;100306.97;5026570;28;20224;-52
2022/04/27 11:07:03;;;;;;;5.47;4.03;;;;;;;18.61;41.44;100306.44;5025552;28;20061;-53
2022/04/27 11:10:12;;;;;;;6.35;3.85;;;;;;;18.92;39.32;100300.50;5026036;28;20067;-53
2022/04/27 11:12:57;;;;;;;4.78;3.35;;;;;;;18.96;39.10;100299.38;5028357;28;20053;-52
2022/04/27 11:15:41;;;;;;;4.65;3.70;;;;;;;18.88;38.39;100299.78;5032702;28;20053;-52
2022/04/27 11:18:26;;;;;;;3.40;2.85;;;;;;;19.28;38.90;100303.00;5027049;28;20076;-53
2022/04/27 11:21:13;;;;;;;7.10;4.20;;;;;;;19.25;39.87;100308.47;5030392;28;20061;-52
2022/04/27 11:24:00;;;;;;;4.47;4.00;;;;;;;18.75;39.21;100304.00;5029381;28;20053;-53
2022/04/27 11:26:46;;;;;;;4.80;3.42;;;;;;;18.24;40.67;100302.13;5029005;28;20084;-52
2022/04/27 11:29:32;;;;;;;6.60;5.30;;;;;;;17.78;43.86;100304.31;5026985;28;20206;-52
2022/04/27 11:32:16;;;;;;;7.32;4.90;;;;;;;17.88;44.64;100310.94;5030562;28;20054;-53
2022/04/27 11:35:01;;;;;;;6.18;4.65;;;;;;;17.99;44.10;100308.59;5030612;28;20073;-52
2022/04/27 11:37:45;;;;;;;5.90;4.78;;;;;;;17.87;44.33;100314.47;5032318;28;20087;-52
2022/04/27 11:40:36;;;;;;;6.72;4.43;;;;;;;17.54;45.33;100309.78;5028139;28;20084;-53
2022/04/27 11:43:25;;;;;;;5.68;4.25;;;;;;;17.17;44.10;100314.09;5031679;28;20049;-52
2022/04/27 11:46:10;;;;;;;5.78;3.63;;;;;;;17.50;44.80;100310.88;5030920;28;20471;-52
2022/04/27 11:48:55;;;;;;;5.53;3.35;;;;;;;17.60;43.20;100309.50;5030100;28;20115;-52
2022/04/27 11:51:46;;;;;;;5.28;3.28;;;;;;;17.75;41.27;100311.47;5031757;28;20080;-53
2022/04/27 11:54:31;;;;;;;11.63;5.25;;;;;;;18.19;41.77;100319.09;5030500;28;20942;-53
2022/04/27 11:57:21;;;;;;;5.05;3.17;;;;;;;18.26;42.35;100313.50;5031292;28;20415;-51
2022/04/27 12:00:07;;;;;;;6.40;3.30;;;;;;;18.06;40.37;100304.72;5033416;28;20138;-52
2022/04/27 12:03:08;;;;;;;4.93;2.85;;;;;;;18.77;40.49;100310.06;5032378;28;20041;-51
2022/04/27 12:05:54;;;;;;;3.67;3.05;;;;;;;18.99;38.67;100306.34;5033155;28;20057;-52
2022/04/27 12:08:42;;;;;;;4.32;2.72;;;;;;;19.14;38.74;100306.41;5033733;28;20049;-52
2022/04/27 12:11:26;;;;;;;5.10;3.28;;;;;;;19.04;38.02;100310.44;5030708;28;20053;-53
2022/04/27 12:14:12;;;;;;;5.00;3.53;;;;;;;19.12;36.91;100310.06;5030834;28;20060;-51
2022/04/27 12:16:56;;;;;;;6.53;3.05;;;;;;;18.67;38.24;100309.66;5031735;28;20053;-52
2022/04/27 12:19:49;;;;;;;5.75;3.05;;;;;;;18.66;37.92;100307.09;5027622;28;20583;-52
2022/04/27 12:22:33;;;;;;;5.07;2.90;;;;;;;18.49;38.83;100312.38;5028048;28;20076;-52
2022/04/27 12:25:18;;;;;;;5.75;3.30;;;;;;;18.57;39.81;100305.75;5027804;28;20323;-53
2022/04/27 12:28:07;;;;;;;8.02;3.83;;;;;;;18.14;39.17;100307.88;5031676;28;20511;-52
2022/04/27 12:30:54;;;;;;;4.97;3.20;;;;;;;18.03;40.12;100310.16;5030673;28;20083;-52
2022/04/27 12:33:44;;;;;;;6.75;3.30;;;;;;;17.57;41.81;100316.75;5033670;28;20167;-53
2022/04/27 12:39:40;;;;;;;4.93;3.17;;;;;;;17.42;41.37;100305.03;5032523;28;20140;-52
2022/04/27 12:42:26;;;;;;;3.50;3.00;;;;;;;17.46;42.22;100309.31;5031332;28;20060;-52
2022/04/27 12:45:10;;;;;;;4.10;2.60;;;;;;;17.53;42.95;100306.28;5030728;28;20595;-52
2022/04/27 12:47:55;;;;;;;9.07;3.90;;;;;;;17.10;41.77;100304.72;5028114;28;20401;-53
2022/04/27 12:50:47;;;;;;;6.05;2.88;;;;;;;17.17;42.29;100305.31;5022203;28;20045;-52
2022/04/27 12:53:33;;;;;;;;;;;;;;;17.27;42.10;100306.63;5023435;28;20054;-52
2022/04/27 12:56:20;;;;;;;5.10;3.40;;;;;;;17.00;42.81;100314.00;5022894;28;20006;-52
2022/04/27 12:59:07;;;;;;;4.72;4.22;;;;;;;16.90;43.07;100308.25;5023389;28;20115;-52
2022/04/27 13:01:58;;;;;;;5.25;4.53;;;;;;;17.27;42.88;100307.47;5021885;28;20058;-53
2022/04/27 13:04:42;;;;;;;3.63;2.63;;;;;;;16.71;41.08;100308.13;5021259;28;21061;-53
2022/04/27 13:07:27;;;;;;;4.63;2.53;;;;;;;17.00;41.46;100308.72;5021339;28;20053;-52
2022/04/27 13:13:18;;;;;;;;;;;;;;;16.86;41.66;100305.78;5022440;28;20077;-53